sensor_id;sensor_type;location;lat;lon;timestamp;P1;durP1;ratioP1;P2;durP2;ratioP2
27796;SDS011;15177;50.844;4.412;2024-02-28T05:30:45;33.60;;;16.63;;
27796;SDS011;15177;50.844;4.412;2024-02-28T05:33:11;30.07;;;15.77;;
27796;SDS011;15177;50.844;4.412;2024-02-28T05:35:39;31.40;;;15.57;;
27796;SDS011;15177;50.844;4.412;2024-02-28T05:38:05;33.87;;;16.30;;
27796;SDS011;15177;50.844;4.412;2024-02-28T05:40:34;35.90;;;17.10;;
27796;SDS011;15177;50.844;4.412;2024-02-28T05:42:59;30.83;;;16.47;;
27796;SDS011;15177;50.844;4.412;2024-02-28T05:45:27;30.07;;;16.23;;
27796;SDS011;15177;50.844;4.412;2024-02-28T05:47:55;32.67;;;18.07;;
27796;SDS011;15177;50.844;4.412;2024-02-28T05:50:25;34.83;;;16.17;;
27796;SDS011;15177;50.844;4.412;2024-02-28T05:52:54;30.73;;;15.93;;
27796;SDS011;15177;50.844;4.412;2024-02-28T05:55:24;33.00;;;16.53;;
27796;SDS011;15177;50.844;4.412;2024-02-28T05:57:51;33.53;;;17.63;;
27796;SDS011;15177;50.844;4.412;2024-02-28T06:00:16;33.87;;;16.10;;
27796;SDS011;15177;50.844;4.412;2024-02-28T06:02:44;35.47;;;16.30;;
27796;SDS011;15177;50.844;4.412;2024-02-28T06:05:12;32.47;;;16.47;;
27796;SDS011;15177;50.844;4.412;2024-02-28T06:07:38;32.03;;;16.93;;
27796;SDS011;15177;50.844;4.412;2024-02-28T06:10:04;34.83;;;16.97;;
27796;SDS011;15177;50.844;4.412;2024-02-28T06:12:30;31.73;;;17.07;;
27796;SDS011;15177;50.844;4.412;2024-02-28T06:14:56;32.13;;;16.93;;
27796;SDS011;15177;50.844;4.412;2024-02-28T06:17:21;30.20;;;17.30;;
27796;SDS011;15177;50.844;4.412;2024-02-28T06:19:47;31.17;;;17.33;;
27796;SDS011;15177;50.844;4.412;2024-02-28T06:22:12;33.57;;;16.90;;
27796;SDS011;15177;50.844;4.412;2024-02-28T06:24:40;39.83;;;17.50;;
27796;SDS011;15177;50.844;4.412;2024-02-28T06:27:08;30.87;;;16.37;;
27796;SDS011;15177;50.844;4.412;2024-02-28T06:29:41;39.13;;;16.43;;
27796;SDS011;15177;50.844;4.412;2024-02-28T06:32:09;36.57;;;16.80;;
27796;SDS011;15177;50.844;4.412;2024-02-28T06:34:37;36.47;;;18.27;;
27796;SDS011;15177;50.844;4.412;2024-02-28T06:37:03;35.47;;;17.23;;
27796;SDS011;15177;50.844;4.412;2024-02-28T06:39:31;31.73;;;16.10;;
27796;SDS011;15177;50.844;4.412;2024-02-28T06:41:56;31.00;;;16.37;;
27796;SDS011;15177;50.844;4.412;2024-02-28T06:44:22;35.90;;;16.67;;
27796;SDS011;15177;50.844;4.412;2024-02-28T06:46:48;32.77;;;16.40;;
27796;SDS011;15177;50.844;4.412;2024-02-28T06:49:13;37.33;;;16.77;;
27796;SDS011;15177;50.844;4.412;2024-02-28T06:51:43;35.30;;;16.63;;
27796;SDS011;15177;50.844;4.412;2024-02-28T06:54:09;35.10;;;17.33;;
27796;SDS011;15177;50.844;4.412;2024-02-28T06:56:35;38.43;;;17.47;;
27796;SDS011;15177;50.844;4.412;2024-02-28T06:59:01;35.00;;;16.70;;
27796;SDS011;15177;50.844;4.412;2024-02-28T07:01:30;39.13;;;16.47;;
27796;SDS011;15177;50.844;4.412;2024-02-28T07:03:58;33.80;;;16.07;;
27796;SDS011;15177;50.844;4.412;2024-02-28T07:06:24;36.67;;;15.43;;
27796;SDS011;15177;50.844;4.412;2024-02-28T07:08:50;31.73;;;16.50;;
27796;SDS011;15177;50.844;4.412;2024-02-28T07:11:15;37.77;;;16.37;;
27796;SDS011;15177;50.844;4.412;2024-02-28T07:13:41;35.90;;;15.83;;
27796;SDS011;15177;50.844;4.412;2024-02-28T07:16:07;37.60;;;16.67;;
27796;SDS011;15177;50.844;4.412;2024-02-28T07:18:35;33.73;;;15.93;;
27796;SDS011;15177;50.844;4.412;2024-02-28T07:21:00;31.90;;;14.30;;
27796;SDS011;15177;50.844;4.412;2024-02-28T07:23:27;33.13;;;15.37;;
27796;SDS011;15177;50.844;4.412;2024-02-28T07:25:55;36.93;;;15.30;;
27796;SDS011;15177;50.844;4.412;2024-02-28T07:28:23;42.03;;;17.17;;
27796;SDS011;15177;50.844;4.412;2024-02-28T07:30:50;32.70;;;16.33;;
27796;SDS011;15177;50.844;4.412;2024-02-28T07:33:16;36.63;;;15.57;;
27796;SDS011;15177;50.844;4.412;2024-02-28T07:35:46;33.20;;;16.50;;
27796;SDS011;15177;50.844;4.412;2024-02-28T07:38:12;33.93;;;15.87;;
27796;SDS011;15177;50.844;4.412;2024-02-28T07:40:55;30.70;;;15.63;;
27796;SDS011;15177;50.844;4.412;2024-02-28T07:43:49;34.40;;;16.07;;
27796;SDS011;15177;50.844;4.412;2024-02-28T07:46:26;33.43;;;15.77;;
27796;SDS011;15177;50.844;4.412;2024-02-28T07:48:52;33.70;;;16.07;;
27796;SDS011;15177;50.844;4.412;2024-02-28T07:51:21;35.83;;;15.77;;
27796;SDS011;15177;50.844;4.412;2024-02-28T07:53:47;34.00;;;14.97;;
27796;SDS011;15177;50.844;4.412;2024-02-28T07:56:19;31.57;;;14.27;;
27796;SDS011;15177;50.844;4.412;2024-02-28T07:58:51;32.90;;;14.30;;
27796;SDS011;15177;50.844;4.412;2024-02-28T08:01:20;33.20;;;13.73;;
27796;SDS011;15177;50.844;4.412;2024-02-28T08:03:51;25.80;;;12.80;;
27796;SDS011;15177;50.844;4.412;2024-02-28T08:06:35;26.83;;;12.47;;
27796;SDS011;15177;50.844;4.412;2024-02-28T08:09:03;29.67;;;13.70;;
27796;SDS011;15177;50.844;4.412;2024-02-28T08:11:29;30.53;;;14.53;;
27796;SDS011;15177;50.844;4.412;2024-02-28T08:14:00;29.73;;;13.33;;
27796;SDS011;15177;50.844;4.412;2024-02-28T08:16:28;33.03;;;14.10;;
27796;SDS011;15177;50.844;4.412;2024-02-28T08:18:54;29.50;;;13.07;;
27796;SDS011;15177;50.844;4.412;2024-02-28T08:21:19;29.47;;;12.67;;
27796;SDS011;15177;50.844;4.412;2024-02-28T08:23:45;30.03;;;14.07;;
27796;SDS011;15177;50.844;4.412;2024-02-28T08:26:11;30.13;;;14.33;;
27796;SDS011;15177;50.844;4.412;2024-02-28T08:28:36;35.30;;;16.10;;
27796;SDS011;15177;50.844;4.412;2024-02-28T08:31:02;28.40;;;15.27;;
27796;SDS011;15177;50.844;4.412;2024-02-28T08:33:28;35.20;;;15.50;;
27796;SDS011;15177;50.844;4.412;2024-02-28T08:35:57;30.93;;;14.27;;
27796;SDS011;15177;50.844;4.412;2024-02-28T08:38:25;35.73;;;14.50;;
27796;SDS011;15177;50.844;4.412;2024-02-28T08:40:51;32.07;;;14.60;;
27796;SDS011;15177;50.844;4.412;2024-02-28T08:43:17;36.07;;;15.47;;
27796;SDS011;15177;50.844;4.412;2024-02-28T08:45:42;32.73;;;14.93;;
27796;SDS011;15177;50.844;4.412;2024-02-28T08:48:10;40.87;;;15.80;;
27796;SDS011;15177;50.844;4.412;2024-02-28T08:50:36;28.07;;;14.60;;
27796;SDS011;15177;50.844;4.412;2024-02-28T08:53:04;33.00;;;13.97;;
27796;SDS011;15177;50.844;4.412;2024-02-28T08:55:30;36.73;;;16.10;;
27796;SDS011;15177;50.844;4.412;2024-02-28T08:57:56;40.50;;;15.67;;
27796;SDS011;15177;50.844;4.412;2024-02-28T09:00:21;41.60;;;16.47;;
27796;SDS011;15177;50.844;4.412;2024-02-28T09:02:47;38.63;;;15.03;;
27796;SDS011;15177;50.844;4.412;2024-02-28T09:05:13;35.33;;;16.20;;
27796;SDS011;15177;50.844;4.412;2024-02-28T09:07:39;39.00;;;16.83;;
27796;SDS011;15177;50.844;4.412;2024-02-28T09:10:07;35.77;;;15.40;;
27796;SDS011;15177;50.844;4.412;2024-02-28T09:12:33;33.17;;;14.97;;
27796;SDS011;15177;50.844;4.412;2024-02-28T09:14:59;37.37;;;15.77;;
27796;SDS011;15177;50.844;4.412;2024-02-28T09:17:25;38.97;;;15.40;;
27796;SDS011;15177;50.844;4.412;2024-02-28T09:19:52;40.23;;;15.17;;
27796;SDS011;15177;50.844;4.412;2024-02-28T09:22:18;39.63;;;15.57;;
27796;SDS011;15177;50.844;4.412;2024-02-28T09:24:46;40.70;;;16.53;;
27796;SDS011;15177;50.844;4.412;2024-02-28T09:27:12;34.90;;;16.80;;
27796;SDS011;15177;50.844;4.412;2024-02-28T09:29:49;44.77;;;17.43;;
27796;SDS011;15177;50.844;4.412;2024-02-28T09:32:15;43.40;;;17.10;;
27796;SDS011;15177;50.844;4.412;2024-02-28T09:34:40;41.80;;;17.40;;
27796;SDS011;15177;50.844;4.412;2024-02-28T09:37:11;41.87;;;17.77;;
27796;SDS011;15177;50.844;4.412;2024-02-28T09:39:38;47.00;;;17.17;;
27796;SDS011;15177;50.844;4.412;2024-02-28T09:42:06;41.10;;;17.67;;
27796;SDS011;15177;50.844;4.412;2024-02-28T09:44:36;42.63;;;16.07;;
27796;SDS011;15177;50.844;4.412;2024-02-28T09:47:05;53.87;;;18.73;;
27796;SDS011;15177;50.844;4.412;2024-02-28T09:49:31;36.37;;;15.80;;
27796;SDS011;15177;50.844;4.412;2024-02-28T09:51:58;38.07;;;18.07;;
27796;SDS011;15177;50.844;4.412;2024-02-28T09:54:26;46.67;;;17.43;;
27796;SDS011;15177;50.844;4.412;2024-02-28T09:56:52;47.10;;;17.63;;
27796;SDS011;15177;50.844;4.412;2024-02-28T09:59:18;43.63;;;18.37;;
27796;SDS011;15177;50.844;4.412;2024-02-28T10:02:04;47.20;;;18.90;;
27796;SDS011;15177;50.844;4.412;2024-02-28T10:04:37;45.87;;;18.07;;
27796;SDS011;15177;50.844;4.412;2024-02-28T10:07:16;43.67;;;17.73;;
27796;SDS011;15177;50.844;4.412;2024-02-28T10:09:42;49.33;;;17.57;;
27796;SDS011;15177;50.844;4.412;2024-02-28T10:12:08;44.93;;;17.43;;
27796;SDS011;15177;50.844;4.412;2024-02-28T10:14:36;39.00;;;16.20;;
27796;SDS011;15177;50.844;4.412;2024-02-28T10:17:03;38.50;;;15.87;;
27796;SDS011;15177;50.844;4.412;2024-02-28T10:19:29;36.83;;;16.80;;
27796;SDS011;15177;50.844;4.412;2024-02-28T10:21:58;45.83;;;15.17;;
27796;SDS011;15177;50.844;4.412;2024-02-28T10:24:26;39.37;;;15.73;;
27796;SDS011;15177;50.844;4.412;2024-02-28T10:26:52;40.07;;;14.90;;
27796;SDS011;15177;50.844;4.412;2024-02-28T10:29:23;37.23;;;14.23;;
27796;SDS011;15177;50.844;4.412;2024-02-28T10:31:50;38.17;;;15.20;;
27796;SDS011;15177;50.844;4.412;2024-02-28T10:34:19;34.90;;;14.37;;
27796;SDS011;15177;50.844;4.412;2024-02-28T10:36:52;30.50;;;13.83;;
27796;SDS011;15177;50.844;4.412;2024-02-28T10:39:18;34.27;;;15.37;;
27796;SDS011;15177;50.844;4.412;2024-02-28T10:41:49;28.43;;;13.10;;
27796;SDS011;15177;50.844;4.412;2024-02-28T10:44:17;29.57;;;13.53;;
27796;SDS011;15177;50.844;4.412;2024-02-28T10:46:48;30.13;;;12.93;;
27796;SDS011;15177;50.844;4.412;2024-02-28T10:49:15;27.27;;;12.47;;
27796;SDS011;15177;50.844;4.412;2024-02-28T10:51:42;24.27;;;11.83;;
27796;SDS011;15177;50.844;4.412;2024-02-28T10:54:12;21.43;;;10.83;;
27796;SDS011;15177;50.844;4.412;2024-02-28T10:56:39;23.60;;;11.00;;
27796;SDS011;15177;50.844;4.412;2024-02-28T10:59:06;19.93;;;10.07;;
27796;SDS011;15177;50.844;4.412;2024-02-28T11:01:36;17.83;;;9.60;;
27796;SDS011;15177;50.844;4.412;2024-02-28T11:04:04;20.97;;;10.23;;
27796;SDS011;15177;50.844;4.412;2024-02-28T11:06:34;17.60;;;9.60;;
27796;SDS011;15177;50.844;4.412;2024-02-28T11:09:00;18.57;;;9.37;;
27796;SDS011;15177;50.844;4.412;2024-02-28T11:11:30;23.80;;;9.93;;
27796;SDS011;15177;50.844;4.412;2024-02-28T11:13:58;16.10;;;9.37;;
27796;SDS011;15177;50.844;4.412;2024-02-28T11:16:32;18.17;;;9.47;;
27796;SDS011;15177;50.844;4.412;2024-02-28T11:18:59;18.03;;;9.33;;
27796;SDS011;15177;50.844;4.412;2024-02-28T11:21:26;19.17;;;10.00;;
27796;SDS011;15177;50.844;4.412;2024-02-28T11:23:59;16.23;;;8.57;;
27796;SDS011;15177;50.844;4.412;2024-02-28T11:26:26;18.83;;;9.60;;
27796;SDS011;15177;50.844;4.412;2024-02-28T11:28:57;16.20;;;8.57;;
27796;SDS011;15177;50.844;4.412;2024-02-28T11:31:23;15.73;;;9.73;;
27796;SDS011;15177;50.844;4.412;2024-02-28T11:33:48;18.13;;;8.70;;
27796;SDS011;15177;50.844;4.412;2024-02-28T11:36:17;19.37;;;8.27;;
27796;SDS011;15177;50.844;4.412;2024-02-28T11:38:43;21.93;;;8.70;;
27796;SDS011;15177;50.844;4.412;2024-02-28T11:41:09;14.30;;;7.70;;
27796;SDS011;15177;50.844;4.412;2024-02-28T11:43:35;12.23;;;7.40;;
27796;SDS011;15177;50.844;4.412;2024-02-28T11:46:00;19.20;;;7.10;;
27796;SDS011;15177;50.844;4.412;2024-02-28T11:48:26;21.90;;;6.73;;
27796;SDS011;15177;50.844;4.412;2024-02-28T11:50:56;12.07;;;6.73;;
27796;SDS011;15177;50.844;4.412;2024-02-28T11:53:24;11.70;;;6.73;;
27796;SDS011;15177;50.844;4.412;2024-02-28T11:55:53;11.50;;;6.37;;
27796;SDS011;15177;50.844;4.412;2024-02-28T11:58:21;13.30;;;6.17;;
27796;SDS011;15177;50.844;4.412;2024-02-28T12:00:50;11.47;;;6.03;;
27796;SDS011;15177;50.844;4.412;2024-02-28T12:03:19;11.37;;;5.63;;
27796;SDS011;15177;50.844;4.412;2024-02-28T12:05:46;15.93;;;6.10;;
27796;SDS011;15177;50.844;4.412;2024-02-28T12:08:14;8.00;;;5.67;;
27796;SDS011;15177;50.844;4.412;2024-02-28T12:10:45;10.47;;;5.30;;
27796;SDS011;15177;50.844;4.412;2024-02-28T12:13:17;13.67;;;5.17;;
27796;SDS011;15177;50.844;4.412;2024-02-28T12:15:43;11.03;;;5.33;;
27796;SDS011;15177;50.844;4.412;2024-02-28T12:18:11;9.40;;;5.20;;
27796;SDS011;15177;50.844;4.412;2024-02-28T12:20:45;13.90;;;5.50;;
27796;SDS011;15177;50.844;4.412;2024-02-28T12:23:12;16.97;;;4.80;;
27796;SDS011;15177;50.844;4.412;2024-02-28T12:25:39;9.13;;;4.97;;
27796;SDS011;15177;50.844;4.412;2024-02-28T12:28:05;12.27;;;5.30;;
27796;SDS011;15177;50.844;4.412;2024-02-28T12:30:39;15.50;;;5.80;;
27796;SDS011;15177;50.844;4.412;2024-02-28T12:33:06;11.20;;;5.67;;
27796;SDS011;15177;50.844;4.412;2024-02-28T12:35:32;11.60;;;5.90;;
27796;SDS011;15177;50.844;4.412;2024-02-28T12:37:59;15.93;;;6.17;;
27796;SDS011;15177;50.844;4.412;2024-02-28T12:40:27;9.90;;;5.97;;
27796;SDS011;15177;50.844;4.412;2024-02-28T12:42:55;12.23;;;5.80;;
27796;SDS011;15177;50.844;4.412;2024-02-28T12:45:21;14.23;;;6.13;;
27796;SDS011;15177;50.844;4.412;2024-02-28T12:47:47;13.90;;;5.80;;
27796;SDS011;15177;50.844;4.412;2024-02-28T12:50:13;13.10;;;5.70;;
27796;SDS011;15177;50.844;4.412;2024-02-28T12:52:41;14.60;;;5.83;;
27796;SDS011;15177;50.844;4.412;2024-02-28T12:55:09;13.50;;;6.10;;
27796;SDS011;15177;50.844;4.412;2024-02-28T12:57:35;11.43;;;5.90;;
27796;SDS011;15177;50.844;4.412;2024-02-28T13:00:00;12.53;;;5.60;;
27796;SDS011;15177;50.844;4.412;2024-02-28T13:02:26;11.20;;;5.70;;
27796;SDS011;15177;50.844;4.412;2024-02-28T13:04:52;14.37;;;6.37;;
27796;SDS011;15177;50.844;4.412;2024-02-28T13:07:20;12.87;;;6.97;;
27796;SDS011;15177;50.844;4.412;2024-02-28T13:09:47;11.27;;;6.27;;
27796;SDS011;15177;50.844;4.412;2024-02-28T13:12:14;12.63;;;6.13;;
27796;SDS011;15177;50.844;4.412;2024-02-28T13:14:42;14.07;;;6.03;;
27796;SDS011;15177;50.844;4.412;2024-02-28T13:17:08;10.40;;;5.30;;
27796;SDS011;15177;50.844;4.412;2024-02-28T13:19:34;10.23;;;5.97;;
27796;SDS011;15177;50.844;4.412;2024-02-28T13:22:00;9.40;;;5.50;;
27796;SDS011;15177;50.844;4.412;2024-02-28T13:24:26;12.03;;;5.93;;
27796;SDS011;15177;50.844;4.412;2024-02-28T13:26:52;10.23;;;6.27;;
27796;SDS011;15177;50.844;4.412;2024-02-28T13:29:17;12.03;;;5.83;;
27796;SDS011;15177;50.844;4.412;2024-02-28T13:31:43;10.97;;;5.93;;
27796;SDS011;15177;50.844;4.412;2024-02-28T13:34:08;8.37;;;5.87;;
27796;SDS011;15177;50.844;4.412;2024-02-28T13:36:34;25.17;;;7.23;;
27796;SDS011;15177;50.844;4.412;2024-02-28T13:39:07;12.57;;;5.23;;
27796;SDS011;15177;50.844;4.412;2024-02-28T13:41:34;10.70;;;5.10;;
27796;SDS011;15177;50.844;4.412;2024-02-28T13:43:59;11.03;;;5.00;;
27796;SDS011;15177;50.844;4.412;2024-02-28T13:46:25;13.90;;;6.50;;
27796;SDS011;15177;50.844;4.412;2024-02-28T13:48:51;7.37;;;5.07;;
27796;SDS011;15177;50.844;4.412;2024-02-28T13:51:16;11.47;;;6.20;;
27796;SDS011;15177;50.844;4.412;2024-02-28T13:53:44;12.23;;;5.37;;
27796;SDS011;15177;50.844;4.412;2024-02-28T13:56:12;10.00;;;6.37;;
27796;SDS011;15177;50.844;4.412;2024-02-28T13:58:38;10.87;;;5.37;;
27796;SDS011;15177;50.844;4.412;2024-02-28T14:01:03;8.37;;;5.93;;
27796;SDS011;15177;50.844;4.412;2024-02-28T14:03:31;12.30;;;6.70;;
27796;SDS011;15177;50.844;4.412;2024-02-28T14:05:59;10.60;;;6.47;;
27796;SDS011;15177;50.844;4.412;2024-02-28T14:08:27;12.23;;;6.90;;
27796;SDS011;15177;50.844;4.412;2024-02-28T14:10:55;14.27;;;6.07;;
27796;SDS011;15177;50.844;4.412;2024-02-28T14:13:21;10.57;;;5.30;;
27796;SDS011;15177;50.844;4.412;2024-02-28T14:15:49;11.43;;;4.77;;
27796;SDS011;15177;50.844;4.412;2024-02-28T14:18:18;8.93;;;4.30;;
27796;SDS011;15177;50.844;4.412;2024-02-28T14:20:45;9.23;;;4.53;;
27796;SDS011;15177;50.844;4.412;2024-02-28T14:23:12;8.30;;;5.30;;
27796;SDS011;15177;50.844;4.412;2024-02-28T14:25:38;7.47;;;4.83;;
27796;SDS011;15177;50.844;4.412;2024-02-28T14:28:04;10.70;;;4.90;;
27796;SDS011;15177;50.844;4.412;2024-02-28T14:30:32;11.17;;;5.00;;
27796;SDS011;15177;50.844;4.412;2024-02-28T14:32:59;11.73;;;5.80;;
27796;SDS011;15177;50.844;4.412;2024-02-28T14:35:28;14.37;;;6.50;;
27796;SDS011;15177;50.844;4.412;2024-02-28T14:37:53;12.93;;;6.33;;
27796;SDS011;15177;50.844;4.412;2024-02-28T14:40:21;11.43;;;5.80;;
27796;SDS011;15177;50.844;4.412;2024-02-28T14:42:51;10.43;;;6.47;;
27796;SDS011;15177;50.844;4.412;2024-02-28T14:45:22;18.23;;;6.97;;
27796;SDS011;15177;50.844;4.412;2024-02-28T14:47:51;13.00;;;5.07;;
27796;SDS011;15177;50.844;4.412;2024-02-28T14:50:19;9.53;;;5.67;;
27796;SDS011;15177;50.844;4.412;2024-02-28T14:52:45;12.77;;;5.60;;
27796;SDS011;15177;50.844;4.412;2024-02-28T14:55:11;12.10;;;4.77;;
27796;SDS011;15177;50.844;4.412;2024-02-28T14:57:39;13.77;;;5.50;;
27796;SDS011;15177;50.844;4.412;2024-02-28T15:00:08;6.80;;;4.67;;
27796;SDS011;15177;50.844;4.412;2024-02-28T15:02:45;8.27;;;4.57;;
27796;SDS011;15177;50.844;4.412;2024-02-28T15:05:12;11.57;;;4.57;;
27796;SDS011;15177;50.844;4.412;2024-02-28T15:07:43;10.40;;;4.37;;
27796;SDS011;15177;50.844;4.412;2024-02-28T15:10:08;7.53;;;4.50;;
27796;SDS011;15177;50.844;4.412;2024-02-28T15:12:34;9.13;;;4.63;;
27796;SDS011;15177;50.844;4.412;2024-02-28T15:15:04;6.30;;;4.10;;
27796;SDS011;15177;50.844;4.412;2024-02-28T15:17:30;8.37;;;4.43;;
27796;SDS011;15177;50.844;4.412;2024-02-28T15:19:59;8.40;;;4.40;;
27796;SDS011;15177;50.844;4.412;2024-02-28T15:22:28;8.03;;;4.13;;
27796;SDS011;15177;50.844;4.412;2024-02-28T15:24:56;12.37;;;4.33;;
27796;SDS011;15177;50.844;4.412;2024-02-28T15:27:22;9.97;;;3.97;;
27796;SDS011;15177;50.844;4.412;2024-02-28T15:29:52;8.53;;;4.07;;
27796;SDS011;15177;50.844;4.412;2024-02-28T15:32:22;8.57;;;3.47;;
27796;SDS011;15177;50.844;4.412;2024-02-28T15:34:50;10.33;;;4.20;;
27796;SDS011;15177;50.844;4.412;2024-02-28T15:37:16;7.07;;;3.57;;
27796;SDS011;15177;50.844;4.412;2024-02-28T15:39:42;8.37;;;3.47;;
27796;SDS011;15177;50.844;4.412;2024-02-28T15:42:11;7.87;;;3.93;;
27796;SDS011;15177;50.844;4.412;2024-02-28T15:44:39;11.00;;;3.40;;
27796;SDS011;15177;50.844;4.412;2024-02-28T15:47:05;6.03;;;3.53;;
27796;SDS011;15177;50.844;4.412;2024-02-28T15:49:31;5.93;;;3.10;;
27796;SDS011;15177;50.844;4.412;2024-02-28T15:51:56;3.53;;;2.93;;
27796;SDS011;15177;50.844;4.412;2024-02-28T15:54:24;4.73;;;3.20;;
27796;SDS011;15177;50.844;4.412;2024-02-28T15:56:52;9.37;;;3.37;;
27796;SDS011;15177;50.844;4.412;2024-02-28T15:59:20;5.60;;;3.00;;
27796;SDS011;15177;50.844;4.412;2024-02-28T16:01:45;6.37;;;3.73;;
27796;SDS011;15177;50.844;4.412;2024-02-28T16:04:11;5.53;;;3.03;;
27796;SDS011;15177;50.844;4.412;2024-02-28T16:06:37;7.53;;;3.60;;
27796;SDS011;15177;50.844;4.412;2024-02-28T16:09:06;8.70;;;3.43;;
27796;SDS011;15177;50.844;4.412;2024-02-28T16:11:34;6.53;;;3.40;;
27796;SDS011;15177;50.844;4.412;2024-02-28T16:14:00;9.57;;;3.40;;
27796;SDS011;15177;50.844;4.412;2024-02-28T16:16:28;9.00;;;3.60;;
27796;SDS011;15177;50.844;4.412;2024-02-28T16:18:54;8.20;;;3.20;;
27796;SDS011;15177;50.844;4.412;2024-02-28T16:21:21;8.73;;;3.73;;
27796;SDS011;15177;50.844;4.412;2024-02-28T16:23:52;8.63;;;3.97;;
27796;SDS011;15177;50.844;4.412;2024-02-28T16:26:18;6.47;;;4.03;;
27796;SDS011;15177;50.844;4.412;2024-02-28T16:28:43;7.57;;;3.80;;
27796;SDS011;15177;50.844;4.412;2024-02-28T16:31:11;8.03;;;3.90;;
27796;SDS011;15177;50.844;4.412;2024-02-28T16:33:37;7.23;;;4.10;;
27796;SDS011;15177;50.844;4.412;2024-02-28T16:36:05;5.87;;;4.50;;
27796;SDS011;15177;50.844;4.412;2024-02-28T16:38:31;6.47;;;4.30;;
27796;SDS011;15177;50.844;4.412;2024-02-28T16:40:56;10.27;;;5.10;;
27796;SDS011;15177;50.844;4.412;2024-02-28T16:43:27;8.30;;;5.47;;
27796;SDS011;15177;50.844;4.412;2024-02-28T16:45:53;12.77;;;5.27;;
27796;SDS011;15177;50.844;4.412;2024-02-28T16:48:20;8.90;;;5.13;;
27796;SDS011;15177;50.844;4.412;2024-02-28T16:50:49;10.77;;;5.20;;
27796;SDS011;15177;50.844;4.412;2024-02-28T16:53:15;8.70;;;4.87;;
27796;SDS011;15177;50.844;4.412;2024-02-28T16:55:41;9.17;;;5.20;;
27796;SDS011;15177;50.844;4.412;2024-02-28T16:58:11;8.47;;;5.27;;
27796;SDS011;15177;50.844;4.412;2024-02-28T17:00:37;13.27;;;6.60;;
27796;SDS011;15177;50.844;4.412;2024-02-28T17:03:07;9.13;;;5.83;;
27796;SDS011;15177;50.844;4.412;2024-02-28T17:05:38;12.57;;;6.00;;
27796;SDS011;15177;50.844;4.412;2024-02-28T17:08:06;10.03;;;5.43;;
27796;SDS011;15177;50.844;4.412;2024-02-28T17:10:34;12.17;;;5.27;;
27796;SDS011;15177;50.844;4.412;2024-02-28T17:13:03;9.63;;;5.50;;
27796;SDS011;15177;50.844;4.412;2024-02-28T17:15:29;14.30;;;5.97;;
27796;SDS011;15177;50.844;4.412;2024-02-28T17:17:57;14.73;;;6.87;;
27796;SDS011;15177;50.844;4.412;2024-02-28T17:20:25;9.43;;;5.87;;
27796;SDS011;15177;50.844;4.412;2024-02-28T17:22:54;9.40;;;6.20;;
27796;SDS011;15177;50.844;4.412;2024-02-28T17:25:22;9.13;;;6.20;;
27796;SDS011;15177;50.844;4.412;2024-02-28T17:27:47;13.10;;;7.20;;
27796;SDS011;15177;50.844;4.412;2024-02-28T17:30:13;14.37;;;7.10;;
27796;SDS011;15177;50.844;4.412;2024-02-28T17:32:39;11.57;;;7.20;;
27796;SDS011;15177;50.844;4.412;2024-02-28T17:35:04;9.97;;;6.40;;
27796;SDS011;15177;50.844;4.412;2024-02-28T17:37:34;14.13;;;7.70;;
27796;SDS011;15177;50.844;4.412;2024-02-28T17:40:00;14.47;;;7.80;;
27796;SDS011;15177;50.844;4.412;2024-02-28T17:42:26;11.27;;;6.77;;
27796;SDS011;15177;50.844;4.412;2024-02-28T17:44:53;13.53;;;7.77;;
27796;SDS011;15177;50.844;4.412;2024-02-28T17:47:21;9.23;;;6.27;;
27796;SDS011;15177;50.844;4.412;2024-02-28T17:49:48;9.03;;;6.33;;
27796;SDS011;15177;50.844;4.412;2024-02-28T17:52:14;12.77;;;7.53;;
27796;SDS011;15177;50.844;4.412;2024-02-28T17:54:42;12.87;;;8.37;;
27796;SDS011;15177;50.844;4.412;2024-02-28T17:57:10;13.20;;;7.40;;
27796;SDS011;15177;50.844;4.412;2024-02-28T17:59:36;15.07;;;8.00;;
27796;SDS011;15177;50.844;4.412;2024-02-28T18:02:04;11.63;;;6.73;;
27796;SDS011;15177;50.844;4.412;2024-02-28T18:04:31;13.27;;;6.93;;
27796;SDS011;15177;50.844;4.412;2024-02-28T18:07:01;16.00;;;6.67;;
27796;SDS011;15177;50.844;4.412;2024-02-28T18:09:27;14.77;;;6.97;;
27796;SDS011;15177;50.844;4.412;2024-02-28T18:11:52;10.00;;;6.90;;
27796;SDS011;15177;50.844;4.412;2024-02-28T18:14:20;13.23;;;6.90;;
27796;SDS011;15177;50.844;4.412;2024-02-28T18:16:49;10.37;;;7.23;;
27796;SDS011;15177;50.844;4.412;2024-02-28T18:19:19;12.70;;;6.83;;
27796;SDS011;15177;50.844;4.412;2024-02-28T18:21:47;13.20;;;8.70;;
27796;SDS011;15177;50.844;4.412;2024-02-28T18:24:12;11.87;;;8.10;;
27796;SDS011;15177;50.844;4.412;2024-02-28T18:26:38;16.90;;;8.40;;
27796;SDS011;15177;50.844;4.412;2024-02-28T18:29:06;11.03;;;7.57;;
27796;SDS011;15177;50.844;4.412;2024-02-28T18:31:36;11.40;;;7.53;;
27796;SDS011;15177;50.844;4.412;2024-02-28T18:34:02;11.97;;;7.73;;
27796;SDS011;15177;50.844;4.412;2024-02-28T18:36:33;15.67;;;8.03;;
27796;SDS011;15177;50.844;4.412;2024-02-28T18:39:01;13.60;;;7.63;;
27796;SDS011;15177;50.844;4.412;2024-02-28T18:41:29;13.60;;;8.30;;
27796;SDS011;15177;50.844;4.412;2024-02-28T18:43:57;17.40;;;7.93;;
27796;SDS011;15177;50.844;4.412;2024-02-28T18:46:23;15.30;;;8.53;;
27796;SDS011;15177;50.844;4.412;2024-02-28T18:48:48;15.27;;;8.63;;
27796;SDS011;15177;50.844;4.412;2024-02-28T18:51:15;17.67;;;8.97;;
27796;SDS011;15177;50.844;4.412;2024-02-28T18:53:41;16.10;;;9.30;;
27796;SDS011;15177;50.844;4.412;2024-02-28T18:56:08;19.43;;;9.27;;
27796;SDS011;15177;50.844;4.412;2024-02-28T18:58:34;16.13;;;9.87;;
27796;SDS011;15177;50.844;4.412;2024-02-28T19:01:01;18.73;;;9.93;;
27796;SDS011;15177;50.844;4.412;2024-02-28T19:03:27;14.07;;;8.67;;
27796;SDS011;15177;50.844;4.412;2024-02-28T19:05:55;14.13;;;8.80;;
27796;SDS011;15177;50.844;4.412;2024-02-28T19:08:25;25.63;;;9.03;;
27796;SDS011;15177;50.844;4.412;2024-02-28T19:10:51;22.00;;;9.43;;
27796;SDS011;15177;50.844;4.412;2024-02-28T19:13:18;13.43;;;9.20;;
27796;SDS011;15177;50.844;4.412;2024-02-28T19:15:43;19.80;;;9.43;;
27796;SDS011;15177;50.844;4.412;2024-02-28T19:18:16;18.93;;;9.10;;
27796;SDS011;15177;50.844;4.412;2024-02-28T19:20:42;15.70;;;8.47;;
27796;SDS011;15177;50.844;4.412;2024-02-28T19:23:08;19.53;;;9.33;;
27796;SDS011;15177;50.844;4.412;2024-02-28T19:25:38;17.67;;;10.30;;
27796;SDS011;15177;50.844;4.412;2024-02-28T19:28:06;18.83;;;9.17;;
27796;SDS011;15177;50.844;4.412;2024-02-28T19:30:31;15.90;;;8.93;;
27796;SDS011;15177;50.844;4.412;2024-02-28T19:32:57;18.67;;;10.07;;
27796;SDS011;15177;50.844;4.412;2024-02-28T19:35:22;21.47;;;10.53;;
27796;SDS011;15177;50.844;4.412;2024-02-28T19:37:53;17.30;;;9.50;;
27796;SDS011;15177;50.844;4.412;2024-02-28T19:40:18;12.80;;;8.57;;
27796;SDS011;15177;50.844;4.412;2024-02-28T19:42:44;17.40;;;9.20;;
27796;SDS011;15177;50.844;4.412;2024-02-28T19:45:12;18.00;;;9.37;;
27796;SDS011;15177;50.844;4.412;2024-02-28T19:47:41;22.00;;;9.33;;
27796;SDS011;15177;50.844;4.412;2024-02-28T19:50:07;17.90;;;9.10;;
27796;SDS011;15177;50.844;4.412;2024-02-28T19:52:33;20.33;;;9.73;;
27796;SDS011;15177;50.844;4.412;2024-02-28T19:55:01;19.87;;;9.13;;
27796;SDS011;15177;50.844;4.412;2024-02-28T19:57:29;19.03;;;9.57;;
27796;SDS011;15177;50.844;4.412;2024-02-28T19:59:56;20.50;;;9.30;;
27796;SDS011;15177;50.844;4.412;2024-02-28T20:02:21;21.10;;;9.57;;